Airfield :
LOGIN :

Register | Disclaimer

   EN    FR    IT 

 










Legend :    VFR   Marginal VFR   IFR   Intensive IFR   Very Intensive IFR
Visi :
Ceiling :
>= 8 km
>= 3000ft
5 to 8 km
1000 to 3000 ft
1500m to 5 km
500 to 1000 ft
800 to 1500m
200 to 500 ft
< 800m
< 200 ft
Symbols :   Thunderstorms  Fog  Heavy snow  Heavy precipitations  Wind > 20 kt
SIGMETs :     Misc.  Thunderstorms  Icing  Turbulence  Mountain Waves  Volcanic Ashes






- Airport Elevation : 79 ft
- IATA code : SPU


LDSP - Split

CURRENT METAR :
  • 021930Z 30005KT CAVOK 08/M04 Q1013 NOSIG

EXPIRED METARs :
  • 021900Z 31003KT 280V340 CAVOK 07/M04 Q1013 NOSIG
  • 021830Z 30003KT 250V340 CAVOK 09/M03 Q1013 NOSIG
  • 021800Z 25006KT CAVOK 08/M02 Q1013 NOSIG
  • 021730Z 23007KT CAVOK 08/M02 Q1013 BECMG 22005KT
  • 021700Z 22006KT CAVOK 09/M01 Q1013 BECMG 22005KT

TAF TAF LDSP
Valid from the 02 at 18:00 until the 03 at 18:00 UTC


021725Z 0218/0318 VRB02KT CAVOK TX13/0312Z TN03/0304Z
BECMG 0310/0312 23010KT
BECMG 0316/0318 31007KT



MET'MAP, your aeronautical weather chart ! - Copyright ORBIFLY December 2007 - Disclaimer

ORBIFLY MET'MAP TEAM :

Programming & Development : Alexandra Zaïnal
Concept & original design : Baudouin d'Aumeries
Assistance for programming : Marc-Olivier Méhu
Technical & hardware support : Manuel Goepfert

Contact : metmap@orbifly.com




SOURCES & CREDITS :

   NOAA